Terminal Aerodrome Forecast
Issued by NWS Fort Wayne, IN

Home | Current Version | Previous Version | Text Only | Print | Product List | Glossary On
Versions: 1 2 3 4 5 6 7 8 9 10 11 12 13
000
FTUS43 KIWX 231700
TAFFWA
TAF
KFWA 231740Z 2318/2418 29015G23KT P6SM BKN050
     FM232300 30011KT P6SM SCT050
     FM240100 VRB03KT P6SM SKC
     FM241500 28005KT P6SM FEW200=

USA.gov is the U.S. government's official web portal to all federal, state and local government web resources and services.